Time;durP1;ratioP1;P1;durP2;ratioP2;P2;SDS_P1;SDS_P2;PMS_P1;PMS_P2;Temp;Humidity;BMP_temperature;BMP_pressure;BME280_temperature;BME280_humidity;BME280_pressure;Samples;Min_cycle;Max_cycle;Signal;HPM_P1;HPM_P2
2023/09/03 00:01:33;;;;;;;3.05;2.42;;;;;;;32.57;24.74;100464.81;4989396;28;20085;-76
2023/09/03 00:04:17;;;;;;;3.47;2.20;;;;;;;32.63;24.87;100462.59;4985092;28;20074;-74
2023/09/03 00:06:53;;;;;;;2.90;2.25;;;;;;;32.72;24.34;100475.34;4991998;28;20130;-83
2023/09/03 00:09:25;;;;;;;3.97;2.13;;;;;;;32.69;24.14;100475.59;4995590;28;20056;-80
2023/09/03 00:11:56;;;;;;;2.67;2.08;;;;;;;32.68;24.88;100473.84;5000550;28;20056;-77
2023/09/03 00:14:25;;;;;;;5.65;2.40;;;;;;;32.65;24.63;100479.41;4999830;28;20043;-81
2023/09/03 00:16:53;;;;;;;2.72;2.17;;;;;;;32.59;25.46;100485.19;5003240;28;20124;-77
2023/09/03 00:19:22;;;;;;;2.40;2.05;;;;;;;32.54;25.95;100484.63;5009786;28;20069;-77
2023/09/03 00:21:53;;;;;;;3.53;2.50;;;;;;;32.44;25.91;100488.88;5002856;28;20046;-77
2023/09/03 00:24:23;;;;;;;3.20;2.22;;;;;;;32.28;25.46;100487.19;5007862;28;20080;-77
2023/09/03 00:26:52;;;;;;;3.40;2.65;;;;;;;32.25;26.09;100487.38;5002300;28;20137;-74
2023/09/03 00:29:20;;;;;;;3.85;2.63;;;;;;;32.23;26.25;100489.31;5002602;28;20061;-75
2023/09/03 00:31:49;;;;;;;3.20;2.42;;;;;;;32.20;27.00;100485.97;5003073;28;20403;-76
2023/09/03 00:34:26;;;;;;;3.05;2.60;;;;;;;32.19;27.48;100485.13;5000115;28;20054;-77
2023/09/03 00:36:55;;;;;;;5.05;2.88;;;;;;;32.18;27.08;100479.84;5007501;28;20045;-78
2023/09/03 00:39:25;;;;;;;5.70;2.50;;;;;;;32.13;27.84;100485.50;5008469;28;20060;-74
2023/09/03 00:41:54;;;;;;;3.80;2.60;;;;;;;32.04;28.27;100495.00;5016796;28;20038;-77
2023/09/03 00:44:24;;;;;;;3.45;2.60;;;;;;;31.98;28.58;100495.41;5008114;28;20042;-75
2023/09/03 00:46:53;;;;;;;2.80;2.50;;;;;;;31.96;27.75;100496.44;5006592;28;20100;-75
2023/09/03 00:49:24;;;;;;;6.10;2.42;;;;;;;31.90;28.06;100490.50;5002816;28;20050;-74
2023/09/03 00:51:58;;;;;;;5.10;3.97;;;;;;;31.82;28.60;100499.97;5010315;28;20484;-79
2023/09/03 00:54:28;;;;;;;2.92;2.35;;;;;;;31.75;29.29;100494.16;5006204;28;20123;-80
2023/09/03 00:56:58;;;;;;;49.10;40.30;;;;;;;31.70;28.86;100490.91;5003249;28;20058;-77
2023/09/03 00:59:29;;;;;;;13.73;11.20;;;;;;;31.64;28.42;100492.16;5001732;28;20042;-80
2023/09/03 01:02:08;;;;;;;;;;;;;;;;;;;;;
2023/09/03 01:04:37;;;;;;;9.75;8.10;;;;;;;31.54;29.56;100490.16;5003406;28;20068;-77
2023/09/03 01:07:06;;;;;;;12.55;7.20;;;;;;;31.50;29.32;100494.84;4998078;28;20058;-76
2023/09/03 01:09:36;;;;;;;4.90;4.25;;;;;;;31.45;30.29;100486.22;5003886;28;20073;-77
2023/09/03 01:12:11;;;;;;;18.13;16.58;;;;;;;31.51;30.14;100481.38;5005582;28;20046;-79
2023/09/03 01:14:51;;;;;;;5.15;3.90;;;;;;;31.55;29.73;100476.69;5006870;28;20046;-78
2023/09/03 01:17:31;;;;;;;4.28;2.97;;;;;;;31.56;30.84;100480.22;4999929;28;20495;-80
2023/09/03 01:20:09;;;;;;;5.57;3.67;;;;;;;31.59;31.07;100482.69;5011127;28;20467;-73
2023/09/03 01:23:14;;;;;;;7.80;3.28;;;;;;;31.51;32.12;100483.19;5009027;28;20524;-74
2023/09/03 01:26:07;;;;;;;6.15;3.38;;;;;;;31.44;32.93;100482.69;5004127;28;20149;-75
2023/09/03 01:28:43;;;;;;;9.27;4.18;;;;;;;31.40;33.10;100491.81;5001749;28;20068;-77
2023/09/03 01:31:13;;;;;;;5.35;3.72;;;;;;;31.33;33.10;100492.31;5011085;28;20050;-77
2023/09/03 01:33:44;;;;;;;4.77;3.60;;;;;;;31.29;33.41;100496.97;5009555;28;20096;-76
2023/09/03 01:36:15;;;;;;;5.60;3.72;;;;;;;31.17;33.91;100492.38;5002780;28;20054;-77
2023/09/03 01:38:43;;;;;;;6.70;3.92;;;;;;;31.01;33.92;100487.97;5004192;28;20038;-75
2023/09/03 01:41:13;;;;;;;7.05;3.80;;;;;;;30.87;34.12;100480.78;5002244;28;20053;-77
2023/09/03 01:43:43;;;;;;;6.20;4.18;;;;;;;30.76;35.79;100487.69;5010628;28;20073;-74
2023/09/03 01:46:17;;;;;;;7.15;4.35;;;;;;;30.62;35.45;100486.69;5005719;28;20038;-77
2023/09/03 01:49:04;;;;;;;5.70;3.85;;;;;;;30.40;35.75;100489.75;5010379;28;20049;-76
2023/09/03 01:51:42;;;;;;;7.13;3.85;;;;;;;30.21;35.90;100489.88;5009926;28;20077;-75
2023/09/03 01:54:18;;;;;;;5.45;4.03;;;;;;;30.06;36.23;100477.44;5014133;28;20042;-73
2023/09/03 01:56:57;;;;;;;5.85;4.05;;;;;;;29.95;36.81;100480.69;5014177;28;20052;-76
2023/09/03 01:59:32;;;;;;;6.35;4.45;;;;;;;29.90;36.91;100481.91;5011632;28;20045;-77
2023/09/03 02:02:01;;;;;;;6.53;3.72;;;;;;;29.82;37.29;100483.16;5021205;28;20045;-75
2023/09/03 02:04:30;;;;;;;6.82;3.88;;;;;;;29.80;37.00;100484.19;5026346;28;20049;-78
2023/09/03 02:07:06;;;;;;;5.30;3.88;;;;;;;29.79;36.01;100488.69;5025693;28;20045;-78
2023/09/03 02:09:35;;;;;;;5.93;3.88;;;;;;;29.80;36.72;100493.09;5026592;28;20054;-78
2023/09/03 02:12:04;;;;;;;7.18;3.60;;;;;;;29.79;36.37;100496.69;5010167;28;20111;-77
2023/09/03 02:14:35;;;;;;;5.00;3.78;;;;;;;29.76;36.78;100488.00;5008555;28;20108;-73
2023/09/03 02:17:14;;;;;;;6.30;3.55;;;;;;;29.73;36.56;100496.16;5008152;28;20054;-82
2023/09/03 02:19:43;;;;;;;4.80;3.50;;;;;;;29.66;36.67;100492.94;5001949;28;20046;-78
2023/09/03 02:22:12;;;;;;;6.63;3.90;;;;;;;29.58;36.56;100492.50;4996909;28;20042;-76
2023/09/03 02:24:46;;;;;;;6.30;3.70;;;;;;;29.48;37.26;100493.91;5008117;28;20054;-79
2023/09/03 02:27:15;;;;;;;4.85;3.83;;;;;;;29.34;37.05;100511.50;5007239;28;20141;-76
2023/09/03 02:29:45;;;;;;;4.45;3.35;;;;;;;29.24;37.48;100511.13;5006033;28;20050;-76
2023/09/03 02:32:13;;;;;;;6.05;3.55;;;;;;;29.18;37.74;100515.91;5009078;28;20100;-78
2023/09/03 02:34:46;;;;;;;5.82;3.53;;;;;;;29.08;37.70;100525.34;4996959;28;20105;-76
2023/09/03 02:37:14;;;;;;;5.03;3.83;;;;;;;28.97;38.09;100526.69;5009579;28;20109;-77
2023/09/03 02:39:43;;;;;;;5.00;3.85;;;;;;;28.90;37.59;100537.75;5005924;28;20074;-75
2023/09/03 02:42:11;;;;;;;6.07;3.83;;;;;;;28.77;38.16;100548.13;5002805;28;20076;-76
2023/09/03 02:44:41;;;;;;;4.47;3.60;;;;;;;28.61;38.05;100554.25;5008559;28;20046;-76
2023/09/03 02:47:11;;;;;;;6.95;3.90;;;;;;;28.52;38.25;100564.44;4999481;28;20047;-73
2023/09/03 02:49:40;;;;;;;8.07;3.85;;;;;;;28.33;40.40;100596.38;5007256;28;20104;-75
2023/09/03 02:52:08;;;;;;;6.65;4.10;;;;;;;27.97;42.24;100616.63;5003962;28;20504;-74
2023/09/03 02:54:37;;;;;;;8.48;4.18;;;;;;;27.63;43.35;100621.69;5008046;28;20056;-74
2023/09/03 02:57:06;;;;;;;7.00;4.30;;;;;;;27.42;43.25;100627.00;4987149;28;20137;-73
2023/09/03 02:59:35;;;;;;;9.23;4.70;;;;;;;27.13;42.11;100634.34;5006215;28;20058;-73
2023/09/03 03:02:04;;;;;;;6.97;4.00;;;;;;;26.70;42.43;100637.88;4985405;28;20601;-73
2023/09/03 03:04:34;;;;;;;7.45;4.95;;;;;;;26.49;43.35;100632.44;5000811;28;20142;-74
2023/09/03 03:07:02;;;;;;;8.82;4.10;;;;;;;26.18;44.45;100653.09;4996947;28;20049;-74
2023/09/03 03:09:37;;;;;;;8.80;4.45;;;;;;;26.07;44.78;100662.31;5004019;28;20073;-74
2023/09/03 03:12:06;;;;;;;7.13;4.53;;;;;;;25.91;45.49;100666.44;5003423;28;20097;-72
2023/09/03 03:14:34;;;;;;;6.03;4.63;;;;;;;25.78;45.79;100670.41;5013658;28;20046;-70
2023/09/03 03:17:03;;;;;;;10.35;5.28;;;;;;;25.49;47.07;100669.63;5007868;28;20064;-73
2023/09/03 03:19:42;;;;;;;6.43;4.70;;;;;;;25.46;48.08;100696.22;5003947;28;20050;-75
2023/09/03 03:22:13;;;;;;;8.10;4.20;;;;;;;25.35;48.51;100707.16;5002810;28;20050;-73
2023/09/03 03:24:42;;;;;;;11.97;5.40;;;;;;;25.07;49.28;100720.41;4993200;28;20046;-73
2023/09/03 03:27:13;;;;;;;7.63;4.70;;;;;;;24.80;50.50;100722.09;5004154;28;20046;-75
2023/09/03 03:29:41;;;;;;;8.82;4.88;;;;;;;24.80;50.72;100717.66;5001860;28;20492;-73
2023/09/03 03:32:10;;;;;;;8.60;5.43;;;;;;;24.86;51.36;100730.72;4998888;28;20511;-74
2023/09/03 03:34:44;;;;;;;13.68;5.43;;;;;;;24.79;52.76;100726.53;5007606;28;20139;-73
2023/09/03 03:37:12;;;;;;;16.15;5.25;;;;;;;24.75;53.21;100719.59;5013395;28;20479;-73
2023/09/03 03:39:43;;;;;;;10.48;6.22;;;;;;;24.72;52.76;100718.84;5002642;28;20050;-73
2023/09/03 03:42:12;;;;;;;16.05;6.30;;;;;;;24.66;53.50;100715.44;4995484;28;20484;-75
2023/09/03 03:44:41;;;;;;;7.13;5.30;;;;;;;24.60;54.00;100714.75;4996769;28;20137;-73
2023/09/03 03:47:09;;;;;;;11.23;6.18;;;;;;;24.55;54.31;100711.38;5004066;28;20046;-74
2023/09/03 03:49:38;;;;;;;7.72;5.55;;;;;;;24.49;54.34;100711.53;4999886;28;20064;-71
2023/09/03 03:52:08;;;;;;;7.68;5.70;;;;;;;24.45;54.05;100711.59;5003094;28;20512;-70
2023/09/03 03:54:37;;;;;;;9.30;5.43;;;;;;;24.37;54.75;100699.50;5002437;28;20444;-76
2023/09/03 03:57:06;;;;;;;12.05;6.15;;;;;;;24.32;54.88;100697.00;5005933;28;20045;-79
2023/09/03 03:59:36;;;;;;;12.18;5.95;;;;;;;24.26;54.55;100694.53;5017652;28;20046;-76
2023/09/03 04:02:04;;;;;;;9.15;5.55;;;;;;;24.21;55.16;100701.72;5007354;28;20053;-72
2023/09/03 04:04:33;;;;;;;8.88;5.32;;;;;;;24.16;54.08;100701.84;5003839;28;20045;-71
2023/09/03 04:07:10;;;;;;;9.63;5.25;;;;;;;24.14;55.12;100721.31;5005973;28;20054;-74
2023/09/03 04:09:40;;;;;;;11.85;5.28;;;;;;;24.12;55.78;100729.28;5002631;28;20062;-71
2023/09/03 04:12:12;;;;;;;9.15;5.82;;;;;;;24.09;56.03;100724.06;5005154;28;20551;-73
2023/09/03 04:14:40;;;;;;;11.80;6.00;;;;;;;23.98;58.20;100756.09;4998643;28;20109;-76
2023/09/03 04:17:09;;;;;;;8.27;5.65;;;;;;;23.90;59.05;100763.34;5000472;28;20151;-71
2023/09/03 04:19:37;;;;;;;8.65;5.88;;;;;;;23.85;59.02;100767.88;5007610;28;20050;-70
2023/09/03 04:22:06;;;;;;;9.07;5.70;;;;;;;23.76;59.81;100768.97;5006467;28;20050;-74
2023/09/03 04:24:36;;;;;;;10.68;6.60;;;;;;;23.71;60.69;100783.16;5007020;28;20838;-75
2023/09/03 04:27:05;;;;;;;17.52;6.60;;;;;;;23.62;63.73;100800.97;5010450;28;20753;-73
2023/09/03 04:29:34;;;;;;;12.55;5.68;;;;;;;23.44;68.86;100798.78;5003197;28;20547;-70
2023/09/03 04:32:02;;;;;;;10.00;6.20;;;;;;;23.15;73.44;100834.59;5002964;28;20101;-70
2023/09/03 04:34:31;;;;;;;15.55;6.60;;;;;;;22.85;76.60;100865.09;4998002;28;20085;-68
2023/09/03 04:36:59;;;;;;;19.48;7.75;;;;;;;22.65;80.47;100865.47;5009498;28;20112;-68
2023/09/03 04:39:28;;;;;;;18.70;6.85;;;;;;;22.49;82.80;100879.84;5002576;28;20405;-69
2023/09/03 04:41:58;;;;;;;17.60;6.93;;;;;;;22.30;84.65;100874.88;4999286;28;20057;-69
2023/09/03 04:44:26;;;;;;;16.05;6.43;;;;;;;22.16;86.32;100861.03;5000732;28;20511;-69
2023/09/03 04:46:56;;;;;;;15.40;6.60;;;;;;;22.07;88.21;100826.94;5010807;28;20050;-69
2023/09/03 04:49:24;;;;;;;10.20;5.60;;;;;;;21.91;89.96;100803.47;5002269;28;20038;-69
2023/09/03 04:51:53;;;;;;;12.93;6.60;;;;;;;21.78;90.40;100801.06;5007482;28;20526;-69
2023/09/03 04:54:21;;;;;;;11.90;5.97;;;;;;;21.68;90.20;100789.81;5001352;28;20057;-71
2023/09/03 04:56:50;;;;;;;11.82;5.90;;;;;;;21.61;90.81;100786.41;5006908;28;20053;-70
2023/09/03 04:59:20;;;;;;;11.20;5.68;;;;;;;21.56;91.58;100790.00;5008569;28;20105;-69
2023/09/03 05:01:48;;;;;;;12.05;6.28;;;;;;;21.49;92.55;100790.09;5006331;28;20046;-70
2023/09/03 05:04:17;;;;;;;11.35;6.43;;;;;;;21.45;93.65;100793.66;5003742;28;20046;-70
2023/09/03 05:06:46;;;;;;;11.43;6.28;;;;;;;21.41;94.55;100799.00;5005334;28;20718;-70
2023/09/03 05:09:14;;;;;;;8.60;6.05;;;;;;;21.35;94.92;100805.19;5004660;28;20050;-71
2023/09/03 05:11:43;;;;;;;7.53;5.22;;;;;;;21.25;96.50;100825.47;4992975;28;20121;-71
2023/09/03 05:14:11;;;;;;;8.02;4.80;;;;;;;21.13;97.57;100830.94;5004457;28;20507;-71
2023/09/03 05:16:41;;;;;;;15.35;5.40;;;;;;;21.03;99.88;100831.94;5002073;28;20358;-70
2023/09/03 05:19:14;;;;;;;8.13;4.43;;;;;;;21.00;99.24;100831.97;5012600;28;20412;-71
2023/09/03 05:21:43;;;;;;;9.40;4.53;;;;;;;20.97;99.31;100839.91;5006962;28;20049;-72
2023/09/03 05:24:11;;;;;;;9.32;4.80;;;;;;;20.84;99.22;100837.41;4996367;28;20552;-73
2023/09/03 05:26:40;;;;;;;10.40;5.20;;;;;;;20.81;99.24;100833.94;4998298;28;20134;-72
2023/09/03 05:29:08;;;;;;;10.60;3.63;;;;;;;20.75;100.00;100839.25;5002924;28;20046;-73
2023/09/03 05:31:37;;;;;;;9.77;5.18;;;;;;;20.71;100.00;100831.44;5002139;28;20054;-73
2023/09/03 05:34:07;;;;;;;7.03;3.70;;;;;;;20.68;100.00;100828.84;5007219;28;20558;-72
2023/09/03 05:36:35;;;;;;;8.32;3.40;;;;;;;20.71;100.00;100841.06;5001607;28;20514;-72
2023/09/03 05:39:04;;;;;;;7.18;4.03;;;;;;;20.68;100.00;100851.59;5007518;28;20166;-71
2023/09/03 05:41:33;;;;;;;12.98;3.88;;;;;;;20.64;100.00;100853.41;4999651;28;20436;-71
2023/09/03 05:44:06;;;;;;;10.65;3.88;;;;;;;20.64;100.00;100871.81;4999892;28;20377;-71
2023/09/03 05:46:34;;;;;;;7.95;4.00;;;;;;;20.61;100.00;100856.06;5002941;28;20061;-72
2023/09/03 05:49:03;;;;;;;6.35;3.00;;;;;;;20.54;100.00;100837.72;5002716;28;20101;-70
2023/09/03 05:51:33;;;;;;;7.07;2.97;;;;;;;20.50;100.00;100842.13;4999909;28;20109;-70
2023/09/03 05:54:02;;;;;;;6.03;2.97;;;;;;;20.47;100.00;100836.91;5002199;28;20496;-70
2023/09/03 05:56:30;;;;;;;9.73;3.05;;;;;;;20.50;100.00;100836.84;5013772;28;20038;-70
2023/09/03 05:59:04;;;;;;;5.70;3.30;;;;;;;20.48;100.00;100844.78;5007471;28;20051;-70
2023/09/03 06:01:32;;;;;;;5.38;3.35;;;;;;;20.48;100.00;100850.03;5009265;28;20141;-70
2023/09/03 06:04:04;;;;;;;4.85;2.85;;;;;;;20.49;100.00;100857.03;5003890;28;20051;-69
2023/09/03 06:06:39;;;;;;;5.00;3.20;;;;;;;20.47;100.00;100852.66;5001515;28;20054;-69
2023/09/03 06:09:08;;;;;;;5.80;3.42;;;;;;;20.44;100.00;100845.69;5007416;28;20045;-69
2023/09/03 06:11:37;;;;;;;7.10;2.97;;;;;;;20.38;100.00;100853.63;5003862;28;20137;-69
2023/09/03 06:14:06;;;;;;;6.22;3.15;;;;;;;20.29;100.00;100851.06;5004528;28;20058;-70
2023/09/03 06:16:34;;;;;;;5.22;3.30;;;;;;;20.24;100.00;100851.13;5015470;28;20476;-69
2023/09/03 06:19:03;;;;;;;7.22;2.75;;;;;;;20.22;100.00;100850.25;5005377;28;20823;-69
2023/09/03 06:21:31;;;;;;;7.00;3.22;;;;;;;20.24;100.00;100855.50;5003795;28;20067;-70
2023/09/03 06:24:01;;;;;;;10.55;4.03;;;;;;;20.24;100.00;100853.75;4999218;28;20053;-70
2023/09/03 06:26:30;;;;;;;8.43;3.28;;;;;;;20.21;100.00;100866.91;5011732;28;20050;-71
2023/09/03 06:29:05;;;;;;;5.70;2.67;;;;;;;20.16;100.00;100884.50;5007514;28;20484;-69
2023/09/03 06:31:34;;;;;;;6.03;3.15;;;;;;;20.14;100.00;100867.00;5005630;28;20576;-70
2023/09/03 06:34:02;;;;;;;7.22;3.83;;;;;;;20.16;100.00;100859.94;5002512;28;20053;-71
2023/09/03 06:36:31;;;;;;;6.35;3.92;;;;;;;20.18;100.00;100851.19;5005983;28;20140;-70
2023/09/03 06:39:02;;;;;;;6.50;3.28;;;;;;;20.17;100.00;100859.94;5001322;28;20042;-70
2023/09/03 06:41:31;;;;;;;12.82;3.50;;;;;;;20.14;100.00;100870.50;5001830;28;20120;-70
2023/09/03 06:44:00;;;;;;;4.65;2.97;;;;;;;20.11;100.00;100869.63;5004311;28;20050;-71
2023/09/03 06:46:28;;;;;;;5.30;2.70;;;;;;;20.06;100.00;100874.91;4998729;28;20399;-71
2023/09/03 06:48:57;;;;;;;5.97;3.15;;;;;;;20.03;100.00;100867.06;5009693;28;20053;-70
2023/09/03 06:51:26;;;;;;;8.48;4.15;;;;;;;20.04;100.00;100863.53;5004022;28;20737;-70
2023/09/03 06:54:02;;;;;;;7.63;3.50;;;;;;;20.03;100.00;100867.94;5007323;28;20491;-70
2023/09/03 06:56:32;;;;;;;6.20;3.15;;;;;;;20.02;100.00;100873.19;5001871;28;20105;-71
2023/09/03 06:59:01;;;;;;;6.68;3.35;;;;;;;19.98;100.00;100864.47;5003196;28;20598;-70
2023/09/03 07:01:29;;;;;;;9.27;3.13;;;;;;;19.97;100.00;100873.22;5000907;28;20511;-70
2023/09/03 07:04:05;;;;;;;7.05;3.20;;;;;;;19.97;100.00;100867.09;5002386;28;20038;-70
2023/09/03 07:06:34;;;;;;;5.15;3.53;;;;;;;19.96;100.00;100871.50;5005077;28;20116;-70
2023/09/03 07:09:02;;;;;;;5.07;3.35;;;;;;;19.98;100.00;100874.13;5002220;28;20051;-71
2023/09/03 07:11:32;;;;;;;4.95;2.78;;;;;;;19.97;100.00;100872.34;4996646;28;20050;-70
2023/09/03 07:14:01;;;;;;;7.57;3.47;;;;;;;19.97;100.00;100867.09;5005142;28;20081;-70
2023/09/03 07:16:30;;;;;;;4.63;2.83;;;;;;;19.95;100.00;100866.25;5004006;28;20057;-74
2023/09/03 07:18:58;;;;;;;6.70;2.78;;;;;;;19.95;100.00;100889.88;5007052;28;20615;-72
2023/09/03 07:21:27;;;;;;;6.35;4.28;;;;;;;19.95;100.00;100887.25;5006209;28;20053;-72
2023/09/03 07:23:56;;;;;;;6.35;2.95;;;;;;;19.96;100.00;100891.66;5003642;28;20606;-72
2023/09/03 07:26:27;;;;;;;6.57;2.95;;;;;;;19.96;100.00;100896.91;5003921;28;20046;-72
2023/09/03 07:28:57;;;;;;;5.10;2.90;;;;;;;19.93;100.00;100902.16;5002308;28;20050;-72
2023/09/03 07:31:26;;;;;;;8.18;2.88;;;;;;;19.89;100.00;100901.31;5005858;28;20046;-72
2023/09/03 07:33:54;;;;;;;5.63;2.90;;;;;;;19.85;100.00;100900.44;5000856;28;20121;-72
2023/09/03 07:36:23;;;;;;;4.07;3.10;;;;;;;19.84;100.00;100888.22;5003888;28;20073;-72
2023/09/03 07:38:54;;;;;;;5.93;2.75;;;;;;;19.84;100.00;100882.97;5002143;28;20046;-72
2023/09/03 07:41:23;;;;;;;6.50;3.10;;;;;;;19.82;100.00;100876.84;5000836;28;20113;-72
2023/09/03 07:43:51;;;;;;;4.82;2.70;;;;;;;19.77;100.00;100876.00;4998065;28;20111;-72
2023/09/03 07:46:21;;;;;;;4.25;2.65;;;;;;;19.73;100.00;100881.28;5000595;28;20132;-73
2023/09/03 07:48:52;;;;;;;3.83;2.40;;;;;;;19.67;100.00;100885.63;5000341;28;20054;-72
2023/09/03 07:51:21;;;;;;;4.68;2.20;;;;;;;19.65;100.00;100891.78;4997598;28;20607;-72
2023/09/03 07:53:50;;;;;;;5.45;3.30;;;;;;;19.63;100.00;100901.41;5002829;28;20579;-72
2023/09/03 07:56:19;;;;;;;9.88;3.08;;;;;;;19.61;100.00;100901.44;5000929;28;20632;-72
2023/09/03 07:58:48;;;;;;;4.88;2.50;;;;;;;19.61;100.00;100890.09;5002504;28;20061;-73
2023/09/03 08:01:16;;;;;;;4.97;2.63;;;;;;;19.59;100.00;100891.84;5003958;28;20060;-72
2023/09/03 08:03:46;;;;;;;4.82;2.63;;;;;;;19.53;100.00;100887.47;5010048;28;20500;-72
2023/09/03 08:06:15;;;;;;;5.35;2.28;;;;;;;19.53;100.00;100903.22;5006900;28;20603;-73
2023/09/03 08:08:43;;;;;;;3.85;2.22;;;;;;;19.54;100.00;100898.84;5006990;28;20482;-72
2023/09/03 08:11:12;;;;;;;6.78;2.58;;;;;;;19.53;100.00;100902.38;5006223;28;20481;-72
2023/09/03 08:13:43;;;;;;;6.65;2.40;;;;;;;19.54;100.00;100906.72;5008149;28;20754;-72
2023/09/03 08:16:11;;;;;;;5.78;2.85;;;;;;;19.53;100.00;100907.59;5005307;28;20053;-72
2023/09/03 08:18:40;;;;;;;4.72;2.90;;;;;;;19.52;100.00;100905.88;5005138;28;20049;-71
2023/09/03 08:21:10;;;;;;;6.00;2.60;;;;;;;19.53;100.00;100902.38;5003535;28;20058;-71
2023/09/03 08:23:42;;;;;;;5.53;2.80;;;;;;;19.54;100.00;100898.84;5006154;28;20057;-72
2023/09/03 08:26:12;;;;;;;3.67;2.30;;;;;;;19.54;100.00;100898.84;5012515;28;20162;-71
2023/09/03 08:28:40;;;;;;;3.45;2.63;;;;;;;19.53;100.00;100895.34;5001220;28;20046;-72
2023/09/03 08:31:09;;;;;;;5.38;3.22;;;;;;;19.51;100.00;100902.34;5006661;28;20056;-72
2023/09/03 08:33:37;;;;;;;7.40;3.25;;;;;;;19.47;100.00;100911.16;5004589;28;20086;-71
2023/09/03 08:36:06;;;;;;;8.32;2.90;;;;;;;19.48;100.00;100904.16;5007034;28;20046;-72
2023/09/03 08:38:36;;;;;;;7.88;2.92;;;;;;;19.46;100.00;100897.13;5006328;28;20124;-72
2023/09/03 08:41:05;;;;;;;4.32;2.67;;;;;;;19.49;100.00;100896.25;5008926;28;20049;-72
2023/09/03 08:43:33;;;;;;;8.43;3.35;;;;;;;19.50;100.00;100907.63;4999280;28;20053;-72
2023/09/03 08:46:08;;;;;;;4.78;2.90;;;;;;;19.51;100.00;100919.88;5006465;28;20064;-72
2023/09/03 08:48:37;;;;;;;5.70;3.17;;;;;;;19.50;100.00;100915.50;5012209;28;20116;-72
2023/09/03 08:51:06;;;;;;;6.57;3.28;;;;;;;19.48;100.00;100912.00;5001549;28;20493;-72
2023/09/03 08:53:37;;;;;;;6.60;3.10;;;;;;;19.46;100.00;100915.50;5004238;28;20104;-72
2023/09/03 08:56:06;;;;;;;6.28;3.78;;;;;;;19.43;100.00;100899.78;5012873;28;20045;-72
2023/09/03 08:58:35;;;;;;;6.50;2.75;;;;;;;19.48;100.00;100905.00;5007221;28;20042;-72
2023/09/03 09:01:11;;;;;;;5.32;3.38;;;;;;;19.48;100.00;100910.25;5009159;28;20084;-72
2023/09/03 09:03:40;;;;;;;10.93;3.80;;;;;;;19.43;100.00;100902.41;5006831;28;20058;-72
2023/09/03 09:06:19;;;;;;;7.43;3.45;;;;;;;19.45;100.00;100913.78;5004509;28;20058;-73
2023/09/03 09:08:50;;;;;;;7.00;4.72;;;;;;;19.38;100.00;100919.94;5009217;28;20104;-72
2023/09/03 09:11:20;;;;;;;13.43;5.38;;;;;;;19.34;100.00;100917.31;5006396;28;20100;-73
2023/09/03 09:13:57;;;;;;;8.13;4.70;;;;;;;19.30;100.00;100905.94;5001182;28;20042;-73
2023/09/03 09:16:25;;;;;;;11.50;4.82;;;;;;;19.28;100.00;100912.97;5006694;28;20112;-72
2023/09/03 09:18:54;;;;;;;8.75;5.88;;;;;;;19.25;100.00;100913.84;5004225;28;20066;-73
2023/09/03 09:21:24;;;;;;;14.25;5.35;;;;;;;19.21;100.00;100912.09;5001541;28;20054;-72
2023/09/03 09:24:02;;;;;;;7.68;4.63;;;;;;;19.19;100.00;100913.00;5002117;28;20610;-73
2023/09/03 09:26:33;;;;;;;7.88;4.25;;;;;;;19.16;100.00;100911.25;5002977;28;20783;-73
2023/09/03 09:29:03;;;;;;;7.35;4.75;;;;;;;19.11;100.00;100920.03;5004913;28;20042;-72
2023/09/03 09:31:35;;;;;;;6.32;4.40;;;;;;;19.04;100.00;100920.03;5001813;28;20053;-73
2023/09/03 09:34:12;;;;;;;9.98;4.30;;;;;;;19.01;100.00;100924.41;5002513;28;20051;-71
2023/09/03 09:36:53;;;;;;;7.68;4.45;;;;;;;18.95;100.00;100920.06;5009201;28;20037;-72
2023/09/03 09:39:23;;;;;;;7.68;4.22;;;;;;;18.89;100.00;100927.94;5004311;28;20127;-72
2023/09/03 09:42:07;;;;;;;6.72;4.15;;;;;;;18.83;100.00;100925.34;5004388;28;20042;-73
2023/09/03 09:44:36;;;;;;;8.63;4.97;;;;;;;18.77;100.00;100935.81;5006208;28;20472;-72
2023/09/03 09:47:17;;;;;;;9.00;4.45;;;;;;;18.66;100.00;100927.06;5008251;28;20095;-72
2023/09/03 09:49:48;;;;;;;7.53;4.47;;;;;;;18.68;100.00;100943.66;5006888;28;20045;-72
2023/09/03 09:52:18;;;;;;;9.00;4.75;;;;;;;18.63;100.00;100944.53;5006106;28;20045;-72
2023/09/03 09:54:49;;;;;;;10.15;5.20;;;;;;;18.62;100.00;100955.91;5003089;28;20097;-72
2023/09/03 09:57:19;;;;;;;5.95;4.45;;;;;;;18.61;100.00;100953.28;5004015;28;20042;-72
2023/09/03 09:59:55;;;;;;;6.20;4.28;;;;;;;18.62;100.00;100957.63;5001764;28;20042;-73
2023/09/03 10:02:24;;;;;;;8.27;4.57;;;;;;;18.60;100.00;100952.41;5006900;28;20093;-72
2023/09/03 10:04:53;;;;;;;12.95;4.80;;;;;;;18.56;100.00;100947.19;5010146;28;20046;-72
2023/09/03 10:07:22;;;;;;;8.68;5.20;;;;;;;18.51;100.00;100952.41;5004650;28;20066;-72
2023/09/03 10:09:55;;;;;;;12.05;5.15;;;;;;;18.48;100.00;100962.88;5006358;28;20042;-72
2023/09/03 10:12:24;;;;;;;7.45;4.40;;;;;;;18.47;100.00;100962.91;5006524;28;20480;-72
2023/09/03 10:14:53;;;;;;;9.23;4.85;;;;;;;18.46;100.00;100951.53;5007357;28;20046;-72
2023/09/03 10:17:22;;;;;;;10.65;6.22;;;;;;;18.46;100.00;100956.75;5007177;28;20531;-71
2023/09/03 10:19:55;;;;;;;14.32;5.70;;;;;;;18.47;100.00;100958.53;5013275;28;20053;-70
2023/09/03 10:22:26;;;;;;;8.50;5.47;;;;;;;18.45;100.00;100957.66;5008658;28;20042;-72
2023/09/03 10:25:00;;;;;;;11.85;5.05;;;;;;;18.42;100.00;100962.91;5007168;28;20061;-71
2023/09/03 10:27:31;;;;;;;6.40;4.80;;;;;;;18.37;100.00;100962.00;5026125;28;20038;-72
2023/09/03 10:30:06;;;;;;;9.68;4.45;;;;;;;18.35;100.00;100974.25;5023049;28;20054;-72
2023/09/03 10:32:36;;;;;;;7.10;4.18;;;;;;;18.29;100.00;100971.63;5016526;28;20488;-72
2023/09/03 10:35:09;;;;;;;11.70;5.30;;;;;;;18.21;100.00;100980.34;5005594;28;20061;-72
2023/09/03 10:37:39;;;;;;;10.13;4.63;;;;;;;18.19;100.00;100975.97;5003133;28;20500;-73
2023/09/03 10:40:28;;;;;;;10.07;4.47;;;;;;;18.18;100.00;100972.44;4996382;28;20115;-73
2023/09/03 10:43:26;;;;;;;8.25;4.10;;;;;;;18.14;100.00;100964.59;5004780;28;20058;-73
2023/09/03 10:46:07;;;;;;;7.13;4.22;;;;;;;18.07;100.00;100963.69;4998698;28;20062;-72
2023/09/03 10:48:37;;;;;;;6.00;3.60;;;;;;;18.02;100.00;100969.81;5000616;28;20049;-73
2023/09/03 10:51:06;;;;;;;8.93;4.25;;;;;;;17.97;100.00;100975.91;5001346;28;20062;-73
2023/09/03 10:53:42;;;;;;;11.05;4.30;;;;;;;17.93;100.00;100978.50;5018460;28;20053;-73
2023/09/03 10:56:14;;;;;;;9.85;4.68;;;;;;;17.89;100.00;100974.13;5029456;28;20045;-73
2023/09/03 10:58:57;;;;;;;11.50;4.20;;;;;;;17.87;100.00;100978.50;5027598;28;20407;-73
2023/09/03 11:01:30;;;;;;;13.38;4.68;;;;;;;17.85;100.00;100975.00;5023538;28;20049;-74
2023/09/03 11:04:00;;;;;;;12.68;4.38;;;;;;;17.85;100.00;100983.72;5023943;28;20061;-73
2023/09/03 11:06:31;;;;;;;9.63;4.05;;;;;;;17.86;100.00;100980.22;5023705;28;20519;-73
2023/09/03 11:09:23;;;;;;;7.18;4.20;;;;;;;17.78;100.00;100980.19;5024039;28;20077;-72
2023/09/03 11:12:01;;;;;;;;;;;;;;;17.73;100.00;100987.16;5015050;28;20141;-71
2023/09/03 11:14:32;;;;;;;8.38;4.88;;;;;;;17.71;100.00;100982.78;5027009;28;19921;-72
2023/09/03 11:17:01;;;;;;;7.93;4.78;;;;;;;17.67;100.00;100988.88;5025413;28;20129;-72
2023/09/03 11:19:41;;;;;;;8.77;4.45;;;;;;;17.63;100.00;100987.97;5025176;28;20454;-71
2023/09/03 11:22:10;;;;;;;6.82;4.20;;;;;;;17.60;100.00;100982.72;5024195;28;20722;-72
2023/09/03 11:24:48;;;;;;;8.82;4.72;;;;;;;17.61;100.00;100983.59;5024825;28;20092;-72
2023/09/03 11:27:18;;;;;;;8.85;4.50;;;;;;;17.60;100.00;100982.72;5022996;28;20053;-72
2023/09/03 11:29:46;;;;;;;7.10;4.57;;;;;;;17.57;100.00;100980.97;5025419;28;20525;-72
2023/09/03 11:32:15;;;;;;;7.93;4.97;;;;;;;17.54;100.00;100977.47;5021348;28;20049;-72
2023/09/03 11:34:43;;;;;;;10.20;4.35;;;;;;;17.52;100.00;100984.44;5022829;28;20492;-72
2023/09/03 11:37:12;;;;;;;9.60;5.03;;;;;;;17.50;100.00;100987.06;5022968;28;20675;-71
2023/09/03 11:39:43;;;;;;;7.40;4.40;;;;;;;17.48;100.00;100985.31;5021325;28;20061;-72